sensor_id;sensor_type;location;lat;lon;timestamp;temperature;humidity
2314;DHT22;42279;51.388;7.000;2023-06-01T11:16:44;29.40;45.80
2314;DHT22;42279;51.388;7.000;2023-06-01T11:19:16;29.10;45.20
2314;DHT22;42279;51.388;7.000;2023-06-01T11:21:43;28.80;46.00
2314;DHT22;42279;51.388;7.000;2023-06-01T11:24:12;29.80;44.40
2314;DHT22;42279;51.388;7.000;2023-06-01T11:26:46;31.00;43.50
2314;DHT22;42279;51.388;7.000;2023-06-01T11:29:15;31.50;42.90
2314;DHT22;42279;51.388;7.000;2023-06-01T11:31:49;32.10;42.50
2314;DHT22;42279;51.388;7.000;2023-06-01T11:34:17;33.20;41.70
2314;DHT22;42279;51.388;7.000;2023-06-01T11:36:46;33.50;41.20
2314;DHT22;42279;51.388;7.000;2023-06-01T11:39:23;33.30;41.50
2314;DHT22;42279;51.388;7.000;2023-06-01T11:44:30;31.80;41.20
2314;DHT22;42279;51.388;7.000;2023-06-01T11:47:00;31.90;41.20
2314;DHT22;42279;51.388;7.000;2023-06-01T11:49:27;31.30;41.20
2314;DHT22;42279;51.388;7.000;2023-06-01T11:51:54;30.50;41.90
2314;DHT22;42279;51.388;7.000;2023-06-01T11:54:28;30.90;42.10
2314;DHT22;42279;51.388;7.000;2023-06-01T11:56:55;31.60;42.10
2314;DHT22;42279;51.388;7.000;2023-06-01T11:59:21;31.20;42.00
2314;DHT22;42279;51.388;7.000;2023-06-01T12:01:48;31.30;41.90
2314;DHT22;42279;51.388;7.000;2023-06-01T12:04:14;30.10;42.40
2314;DHT22;42279;51.388;7.000;2023-06-01T12:06:40;30.30;43.00
2314;DHT22;42279;51.388;7.000;2023-06-01T12:09:07;31.00;43.00
2314;DHT22;42279;51.388;7.000;2023-06-01T12:11:34;32.00;42.50
2314;DHT22;42279;51.388;7.000;2023-06-01T12:14:00;32.60;42.00
2314;DHT22;42279;51.388;7.000;2023-06-01T12:16:55;32.50;41.60
2314;DHT22;42279;51.388;7.000;2023-06-01T12:19:25;31.20;41.90
2314;DHT22;42279;51.388;7.000;2023-06-01T12:21:54;32.00;42.10
2314;DHT22;42279;51.388;7.000;2023-06-01T12:24:33;32.20;41.60
2314;DHT22;42279;51.388;7.000;2023-06-01T12:27:02;31.70;41.80
2314;DHT22;42279;51.388;7.000;2023-06-01T12:29:39;31.70;41.60
2314;DHT22;42279;51.388;7.000;2023-06-01T12:32:07;32.30;41.00
2314;DHT22;42279;51.388;7.000;2023-06-01T12:34:34;31.90;41.40
2314;DHT22;42279;51.388;7.000;2023-06-01T12:37:20;32.50;41.30
2314;DHT22;42279;51.388;7.000;2023-06-01T12:39:56;32.40;40.70
2314;DHT22;42279;51.388;7.000;2023-06-01T12:42:35;31.90;41.10
2314;DHT22;42279;51.388;7.000;2023-06-01T12:45:07;32.30;41.40
2314;DHT22;42279;51.388;7.000;2023-06-01T12:47:40;32.80;40.40
2314;DHT22;42279;51.388;7.000;2023-06-01T12:50:08;33.10;40.50
2314;DHT22;42279;51.388;7.000;2023-06-01T12:52:38;33.30;40.50
2314;DHT22;42279;51.388;7.000;2023-06-01T12:55:05;33.60;40.60
2314;DHT22;42279;51.388;7.000;2023-06-01T12:57:32;33.70;39.80
2314;DHT22;42279;51.388;7.000;2023-06-01T12:59:59;33.10;40.10
2314;DHT22;42279;51.388;7.000;2023-06-01T13:02:25;33.20;40.30
2314;DHT22;42279;51.388;7.000;2023-06-01T13:04:51;33.60;40.00
2314;DHT22;42279;51.388;7.000;2023-06-01T13:07:18;34.00;39.60
2314;DHT22;42279;51.388;7.000;2023-06-01T13:09:44;32.10;39.80
2314;DHT22;42279;51.388;7.000;2023-06-01T13:12:10;31.40;40.70
2314;DHT22;42279;51.388;7.000;2023-06-01T13:14:36;30.50;41.50
2314;DHT22;42279;51.388;7.000;2023-06-01T13:17:02;31.30;41.60
2314;DHT22;42279;51.388;7.000;2023-06-01T13:19:30;31.50;41.50
2314;DHT22;42279;51.388;7.000;2023-06-01T13:21:56;32.10;40.90
2314;DHT22;42279;51.388;7.000;2023-06-01T13:24:22;31.80;41.10
2314;DHT22;42279;51.388;7.000;2023-06-01T13:26:47;32.00;41.00
2314;DHT22;42279;51.388;7.000;2023-06-01T13:29:13;31.20;41.10
2314;DHT22;42279;51.388;7.000;2023-06-01T13:31:39;29.90;42.20
2314;DHT22;42279;51.388;7.000;2023-06-01T13:34:05;30.00;42.30
2314;DHT22;42279;51.388;7.000;2023-06-01T13:36:31;30.10;42.30
2314;DHT22;42279;51.388;7.000;2023-06-01T13:38:56;30.80;41.90
2314;DHT22;42279;51.388;7.000;2023-06-01T13:41:23;30.30;41.70
2314;DHT22;42279;51.388;7.000;2023-06-01T13:43:48;29.50;43.00
2314;DHT22;42279;51.388;7.000;2023-06-01T13:46:14;29.10;43.40
2314;DHT22;42279;51.388;7.000;2023-06-01T13:48:40;29.80;43.40
2314;DHT22;42279;51.388;7.000;2023-06-01T13:51:05;30.40;42.40
2314;DHT22;42279;51.388;7.000;2023-06-01T13:53:32;30.80;42.40
2314;DHT22;42279;51.388;7.000;2023-06-01T13:55:59;31.30;42.10
2314;DHT22;42279;51.388;7.000;2023-06-01T13:58:24;29.70;42.10
2314;DHT22;42279;51.388;7.000;2023-06-01T14:00:50;28.20;43.30
2314;DHT22;42279;51.388;7.000;2023-06-01T14:03:15;28.50;43.90
2314;DHT22;42279;51.388;7.000;2023-06-01T14:05:41;28.50;43.30
2314;DHT22;42279;51.388;7.000;2023-06-01T14:08:08;28.40;43.40
2314;DHT22;42279;51.388;7.000;2023-06-01T14:10:34;28.20;43.20
2314;DHT22;42279;51.388;7.000;2023-06-01T14:13:00;28.70;42.90
2314;DHT22;42279;51.388;7.000;2023-06-01T14:15:26;29.40;42.60
2314;DHT22;42279;51.388;7.000;2023-06-01T14:17:52;29.60;42.60
2314;DHT22;42279;51.388;7.000;2023-06-01T14:20:17;30.20;41.60
2314;DHT22;42279;51.388;7.000;2023-06-01T14:22:43;30.70;41.30
2314;DHT22;42279;51.388;7.000;2023-06-01T14:25:09;30.70;41.10
2314;DHT22;42279;51.388;7.000;2023-06-01T14:27:35;30.90;41.20
2314;DHT22;42279;51.388;7.000;2023-06-01T14:30:03;31.20;41.30
2314;DHT22;42279;51.388;7.000;2023-06-01T14:32:30;30.90;41.10
2314;DHT22;42279;51.388;7.000;2023-06-01T14:34:56;30.30;41.60
2314;DHT22;42279;51.388;7.000;2023-06-01T14:37:22;29.90;42.00
2314;DHT22;42279;51.388;7.000;2023-06-01T14:39:47;29.10;42.00
2314;DHT22;42279;51.388;7.000;2023-06-01T14:42:15;29.00;42.00
2314;DHT22;42279;51.388;7.000;2023-06-01T14:44:41;29.10;41.80
2314;DHT22;42279;51.388;7.000;2023-06-01T14:47:06;28.90;42.00
2314;DHT22;42279;51.388;7.000;2023-06-01T14:49:33;28.70;41.90
2314;DHT22;42279;51.388;7.000;2023-06-01T14:51:58;28.30;42.30
2314;DHT22;42279;51.388;7.000;2023-06-01T14:54:24;27.90;43.20
2314;DHT22;42279;51.388;7.000;2023-06-01T14:56:50;27.10;43.30
2314;DHT22;42279;51.388;7.000;2023-06-01T14:59:15;26.20;44.30
2314;DHT22;42279;51.388;7.000;2023-06-01T15:01:41;25.70;44.40
2314;DHT22;42279;51.388;7.000;2023-06-01T15:04:07;25.20;45.00
2314;DHT22;42279;51.388;7.000;2023-06-01T15:06:33;25.10;45.70
2314;DHT22;42279;51.388;7.000;2023-06-01T15:08:58;25.00;46.40
2314;DHT22;42279;51.388;7.000;2023-06-01T15:11:24;24.50;46.60
2314;DHT22;42279;51.388;7.000;2023-06-01T15:13:51;24.50;47.10
2314;DHT22;42279;51.388;7.000;2023-06-01T15:18:53;24.10;48.30
2314;DHT22;42279;51.388;7.000;2023-06-01T15:21:21;24.10;48.50
2314;DHT22;42279;51.388;7.000;2023-06-01T15:23:47;26.00;49.60
2314;DHT22;42279;51.388;7.000;2023-06-01T15:26:13;24.00;49.30
2314;DHT22;42279;51.388;7.000;2023-06-01T15:28:39;25.40;49.50
2314;DHT22;42279;51.388;7.000;2023-06-01T15:31:13;24.70;48.10
2314;DHT22;42279;51.388;7.000;2023-06-01T15:33:47;23.20;48.30
2314;DHT22;42279;51.388;7.000;2023-06-01T15:38:47;23.90;47.50
2314;DHT22;42279;51.388;7.000;2023-06-01T15:41:13;23.90;47.20
2314;DHT22;42279;51.388;7.000;2023-06-01T15:43:38;23.80;46.60
2314;DHT22;42279;51.388;7.000;2023-06-01T15:46:05;23.70;47.00
2314;DHT22;42279;51.388;7.000;2023-06-01T15:48:31;23.70;46.80
2314;DHT22;42279;51.388;7.000;2023-06-01T15:50:57;23.80;47.10
2314;DHT22;42279;51.388;7.000;2023-06-01T15:53:23;23.80;46.70
2314;DHT22;42279;51.388;7.000;2023-06-01T15:55:49;23.60;46.80
2314;DHT22;42279;51.388;7.000;2023-06-01T15:58:15;23.40;47.60
2314;DHT22;42279;51.388;7.000;2023-06-01T16:00:42;23.30;47.90
2314;DHT22;42279;51.388;7.000;2023-06-01T16:03:08;23.30;47.70
2314;DHT22;42279;51.388;7.000;2023-06-01T16:05:34;23.30;47.50
2314;DHT22;42279;51.388;7.000;2023-06-01T16:07:59;23.30;48.10
2314;DHT22;42279;51.388;7.000;2023-06-01T16:10:25;23.30;48.30
2314;DHT22;42279;51.388;7.000;2023-06-01T16:12:51;23.30;48.30
2314;DHT22;42279;51.388;7.000;2023-06-01T16:15:16;23.30;48.70
2314;DHT22;42279;51.388;7.000;2023-06-01T16:17:42;23.20;49.10
2314;DHT22;42279;51.388;7.000;2023-06-01T16:20:08;23.20;49.20
2314;DHT22;42279;51.388;7.000;2023-06-01T16:22:34;23.10;48.80
2314;DHT22;42279;51.388;7.000;2023-06-01T16:25:00;23.00;48.80
2314;DHT22;42279;51.388;7.000;2023-06-01T16:27:25;22.90;49.30
2314;DHT22;42279;51.388;7.000;2023-06-01T16:29:51;22.90;49.30
2314;DHT22;42279;51.388;7.000;2023-06-01T16:32:17;22.90;49.50
2314;DHT22;42279;51.388;7.000;2023-06-01T16:34:43;23.00;49.40
2314;DHT22;42279;51.388;7.000;2023-06-01T16:37:08;22.90;49.40
2314;DHT22;42279;51.388;7.000;2023-06-01T16:39:34;22.80;49.60
2314;DHT22;42279;51.388;7.000;2023-06-01T16:42:00;22.60;50.00
2314;DHT22;42279;51.388;7.000;2023-06-01T16:44:25;22.40;50.40
2314;DHT22;42279;51.388;7.000;2023-06-01T16:46:52;22.50;50.90
2314;DHT22;42279;51.388;7.000;2023-06-01T16:49:18;22.70;50.70
2314;DHT22;42279;51.388;7.000;2023-06-01T16:51:43;23.20;51.00
2314;DHT22;42279;51.388;7.000;2023-06-01T16:54:10;22.50;51.20
2314;DHT22;42279;51.388;7.000;2023-06-01T16:56:35;22.40;51.20
2314;DHT22;42279;51.388;7.000;2023-06-01T16:59:01;22.50;51.30
2314;DHT22;42279;51.388;7.000;2023-06-01T17:01:27;22.40;51.30
2314;DHT22;42279;51.388;7.000;2023-06-01T17:03:53;22.10;51.60
2314;DHT22;42279;51.388;7.000;2023-06-01T17:06:19;21.30;51.50
2314;DHT22;42279;51.388;7.000;2023-06-01T17:08:46;22.10;52.00
2314;DHT22;42279;51.388;7.000;2023-06-01T17:11:12;22.00;51.80
2314;DHT22;42279;51.388;7.000;2023-06-01T17:13:37;22.00;51.90
2314;DHT22;42279;51.388;7.000;2023-06-01T17:16:03;22.10;51.80
2314;DHT22;42279;51.388;7.000;2023-06-01T17:18:32;21.90;52.20
2314;DHT22;42279;51.388;7.000;2023-06-01T17:20:58;22.00;52.60
2314;DHT22;42279;51.388;7.000;2023-06-01T17:23:23;21.90;52.50
2314;DHT22;42279;51.388;7.000;2023-06-01T17:25:49;22.10;53.20
2314;DHT22;42279;51.388;7.000;2023-06-01T17:28:15;22.00;54.40
2314;DHT22;42279;51.388;7.000;2023-06-01T17:30:41;21.90;55.50
2314;DHT22;42279;51.388;7.000;2023-06-01T17:33:08;21.70;56.10
2314;DHT22;42279;51.388;7.000;2023-06-01T17:35:34;21.60;56.40
2314;DHT22;42279;51.388;7.000;2023-06-01T17:37:59;21.50;57.00
2314;DHT22;42279;51.388;7.000;2023-06-01T17:40:25;21.20;57.30
2314;DHT22;42279;51.388;7.000;2023-06-01T17:42:51;20.90;58.00
2314;DHT22;42279;51.388;7.000;2023-06-01T17:45:17;20.90;58.80
2314;DHT22;42279;51.388;7.000;2023-06-01T17:47:42;20.80;59.00
2314;DHT22;42279;51.388;7.000;2023-06-01T17:50:08;20.60;59.50
2314;DHT22;42279;51.388;7.000;2023-06-01T17:52:33;20.50;59.70
2314;DHT22;42279;51.388;7.000;2023-06-01T17:54:59;20.40;60.40
2314;DHT22;42279;51.388;7.000;2023-06-01T17:57:25;20.30;61.50
2314;DHT22;42279;51.388;7.000;2023-06-01T17:59:51;20.20;62.30
2314;DHT22;42279;51.388;7.000;2023-06-01T18:02:16;20.10;63.40
2314;DHT22;42279;51.388;7.000;2023-06-01T18:04:42;20.10;64.20
2314;DHT22;42279;51.388;7.000;2023-06-01T18:07:08;20.00;64.90
2314;DHT22;42279;51.388;7.000;2023-06-01T18:09:33;20.00;65.50
2314;DHT22;42279;51.388;7.000;2023-06-01T18:11:59;19.90;66.00
2314;DHT22;42279;51.388;7.000;2023-06-01T18:14:25;19.90;66.80
2314;DHT22;42279;51.388;7.000;2023-06-01T18:16:51;20.00;66.90
2314;DHT22;42279;51.388;7.000;2023-06-01T18:19:17;20.00;67.30
2314;DHT22;42279;51.388;7.000;2023-06-01T18:21:43;19.80;68.20
2314;DHT22;42279;51.388;7.000;2023-06-01T18:24:11;19.70;68.50
2314;DHT22;42279;51.388;7.000;2023-06-01T18:26:37;20.30;71.10
2314;DHT22;42279;51.388;7.000;2023-06-01T18:29:02;18.90;69.70
2314;DHT22;42279;51.388;7.000;2023-06-01T18:31:28;19.40;70.70
2314;DHT22;42279;51.388;7.000;2023-06-01T18:33:53;19.00;71.50
2314;DHT22;42279;51.388;7.000;2023-06-01T18:36:19;18.70;71.70
2314;DHT22;42279;51.388;7.000;2023-06-01T18:38:45;18.90;73.20
2314;DHT22;42279;51.388;7.000;2023-06-01T18:41:14;18.90;74.60
2314;DHT22;42279;51.388;7.000;2023-06-01T18:43:40;19.00;74.20
2314;DHT22;42279;51.388;7.000;2023-06-01T18:46:06;18.70;73.60
2314;DHT22;42279;51.388;7.000;2023-06-01T18:48:31;19.30;75.10
2314;DHT22;42279;51.388;7.000;2023-06-01T18:50:57;18.90;74.90
2314;DHT22;42279;51.388;7.000;2023-06-01T18:53:25;18.70;74.90
2314;DHT22;42279;51.388;7.000;2023-06-01T18:55:55;18.60;75.10
2314;DHT22;42279;51.388;7.000;2023-06-01T18:58:20;18.70;75.30
2314;DHT22;42279;51.388;7.000;2023-06-01T19:00:46;18.50;75.80
2314;DHT22;42279;51.388;7.000;2023-06-01T19:03:13;18.40;76.40
2314;DHT22;42279;51.388;7.000;2023-06-01T19:05:39;19.40;79.10
2314;DHT22;42279;51.388;7.000;2023-06-01T19:08:06;18.30;78.50
2314;DHT22;42279;51.388;7.000;2023-06-01T19:13:39;18.20;78.10
2314;DHT22;42279;51.388;7.000;2023-06-01T19:18:49;18.10;77.60
2314;DHT22;42279;51.388;7.000;2023-06-01T19:21:16;17.30;76.10
2314;DHT22;42279;51.388;7.000;2023-06-01T19:23:50;17.70;77.80
2314;DHT22;42279;51.388;7.000;2023-06-01T19:26:18;17.60;78.50
2314;DHT22;42279;51.388;7.000;2023-06-01T19:28:50;17.50;78.90
2314;DHT22;42279;51.388;7.000;2023-06-01T19:31:21;17.60;79.50
2314;DHT22;42279;51.388;7.000;2023-06-01T19:33:47;18.00;80.20
2314;DHT22;42279;51.388;7.000;2023-06-01T19:41:41;17.50;81.40
2314;DHT22;42279;51.388;7.000;2023-06-01T19:44:18;17.30;81.40
2314;DHT22;42279;51.388;7.000;2023-06-01T19:46:44;17.50;82.40
2314;DHT22;42279;51.388;7.000;2023-06-01T19:49:14;17.30;83.30
2314;DHT22;42279;51.388;7.000;2023-06-01T19:51:40;16.80;83.40
2314;DHT22;42279;51.388;7.000;2023-06-01T19:54:05;17.30;84.60
2314;DHT22;42279;51.388;7.000;2023-06-01T19:56:36;17.30;85.10
2314;DHT22;42279;51.388;7.000;2023-06-01T19:59:05;17.30;86.10
2314;DHT22;42279;51.388;7.000;2023-06-01T20:01:37;17.20;86.10
2314;DHT22;42279;51.388;7.000;2023-06-01T20:04:04;17.10;87.00
2314;DHT22;42279;51.388;7.000;2023-06-01T20:06:30;16.60;86.60
2314;DHT22;42279;51.388;7.000;2023-06-01T20:09:16;16.70;97.10
2314;DHT22;42279;51.388;7.000;2023-06-01T20:11:50;17.00;88.70
2314;DHT22;42279;51.388;7.000;2023-06-01T20:14:28;16.90;89.40
2314;DHT22;42279;51.388;7.000;2023-06-01T20:16:54;16.90;90.00
2314;DHT22;42279;51.388;7.000;2023-06-01T20:19:20;16.70;90.10
2314;DHT22;42279;51.388;7.000;2023-06-01T20:21:55;16.70;90.70
2314;DHT22;42279;51.388;7.000;2023-06-01T20:24:25;16.80;90.80
2314;DHT22;42279;51.388;7.000;2023-06-01T20:29:20;16.70;91.20
2314;DHT22;42279;51.388;7.000;2023-06-01T20:31:46;16.20;91.10
2314;DHT22;42279;51.388;7.000;2023-06-01T20:34:13;16.60;92.00
2314;DHT22;42279;51.388;7.000;2023-06-01T20:36:42;16.70;91.50
2314;DHT22;42279;51.388;7.000;2023-06-01T20:39:08;16.90;99.90
2314;DHT22;42279;51.388;7.000;2023-06-01T20:41:35;16.60;91.90
2314;DHT22;42279;51.388;7.000;2023-06-01T20:44:01;16.40;92.20
2314;DHT22;42279;51.388;7.000;2023-06-01T20:46:29;16.20;93.40
2314;DHT22;42279;51.388;7.000;2023-06-01T20:48:59;16.00;94.00
2314;DHT22;42279;51.388;7.000;2023-06-01T20:56:39;17.10;96.60
2314;DHT22;42279;51.388;7.000;2023-06-01T20:59:06;16.00;96.20
2314;DHT22;42279;51.388;7.000;2023-06-01T21:01:37;15.50;96.40
2314;DHT22;42279;51.388;7.000;2023-06-01T21:04:07;15.70;97.30
2314;DHT22;42279;51.388;7.000;2023-06-01T21:06:33;15.00;97.80
2314;DHT22;42279;51.388;7.000;2023-06-01T21:08:59;15.50;98.90
2314;DHT22;42279;51.388;7.000;2023-06-01T21:11:25;15.40;99.30
2314;DHT22;42279;51.388;7.000;2023-06-01T21:13:54;15.60;99.90
2314;DHT22;42279;51.388;7.000;2023-06-01T21:16:20;15.00;99.90
2314;DHT22;42279;51.388;7.000;2023-06-01T21:18:46;15.10;99.90
2314;DHT22;42279;51.388;7.000;2023-06-01T21:21:11;15.40;99.90
2314;DHT22;42279;51.388;7.000;2023-06-01T21:23:37;15.10;99.90
2314;DHT22;42279;51.388;7.000;2023-06-01T21:26:03;15.10;99.90
2314;DHT22;42279;51.388;7.000;2023-06-01T21:28:29;15.10;99.90
2314;DHT22;42279;51.388;7.000;2023-06-01T21:30:54;16.70;99.90
2314;DHT22;42279;51.388;7.000;2023-06-01T21:33:22;14.90;99.90
2314;DHT22;42279;51.388;7.000;2023-06-01T21:35:48;15.10;99.90
2314;DHT22;42279;51.388;7.000;2023-06-01T21:38:15;14.70;99.90
2314;DHT22;42279;51.388;7.000;2023-06-01T21:40:42;15.70;99.90
2314;DHT22;42279;51.388;7.000;2023-06-01T21:43:08;15.00;99.90
2314;DHT22;42279;51.388;7.000;2023-06-01T21:45:33;15.00;99.90
2314;DHT22;42279;51.388;7.000;2023-06-01T21:47:59;14.70;99.90
2314;DHT22;42279;51.388;7.000;2023-06-01T21:50:26;15.00;99.90
2314;DHT22;42279;51.388;7.000;2023-06-01T21:52:55;15.30;99.90
2314;DHT22;42279;51.388;7.000;2023-06-01T21:55:21;14.70;99.90
2314;DHT22;42279;51.388;7.000;2023-06-01T21:57:47;15.50;99.90
2314;DHT22;42279;51.388;7.000;2023-06-01T22:00:13;15.10;99.90
2314;DHT22;42279;51.388;7.000;2023-06-01T22:02:41;14.50;99.90
2314;DHT22;42279;51.388;7.000;2023-06-01T22:05:07;14.80;99.90
2314;DHT22;42279;51.388;7.000;2023-06-01T22:07:33;14.00;99.90
2314;DHT22;42279;51.388;7.000;2023-06-01T22:09:59;14.00;99.90
2314;DHT22;42279;51.388;7.000;2023-06-01T22:12:26;14.40;99.90
2314;DHT22;42279;51.388;7.000;2023-06-01T22:14:51;13.90;99.90
2314;DHT22;42279;51.388;7.000;2023-06-01T22:17:17;14.30;99.90
2314;DHT22;42279;51.388;7.000;2023-06-01T22:19:43;14.60;99.90
2314;DHT22;42279;51.388;7.000;2023-06-01T22:22:08;14.60;99.90
2314;DHT22;42279;51.388;7.000;2023-06-01T22:24:35;14.20;99.90
2314;DHT22;42279;51.388;7.000;2023-06-01T22:27:00;14.10;99.90
2314;DHT22;42279;51.388;7.000;2023-06-01T22:29:29;15.40;99.90
2314;DHT22;42279;51.388;7.000;2023-06-01T22:31:54;14.40;99.90
2314;DHT22;42279;51.388;7.000;2023-06-01T22:34:20;14.50;99.90
2314;DHT22;42279;51.388;7.000;2023-06-01T22:36:46;14.20;99.90
2314;DHT22;42279;51.388;7.000;2023-06-01T22:39:11;14.50;99.90
2314;DHT22;42279;51.388;7.000;2023-06-01T22:41:37;16.20;99.90
2314;DHT22;42279;51.388;7.000;2023-06-01T22:44:02;14.80;99.90
2314;DHT22;42279;51.388;7.000;2023-06-01T22:46:28;14.40;99.90
2314;DHT22;42279;51.388;7.000;2023-06-01T22:48:54;14.00;99.90
2314;DHT22;42279;51.388;7.000;2023-06-01T22:51:21;14.20;99.90
2314;DHT22;42279;51.388;7.000;2023-06-01T22:53:50;14.20;99.90
2314;DHT22;42279;51.388;7.000;2023-06-01T22:56:15;14.30;99.90
2314;DHT22;42279;51.388;7.000;2023-06-01T22:58:41;14.30;99.90
2314;DHT22;42279;51.388;7.000;2023-06-01T23:01:07;14.30;99.90
2314;DHT22;42279;51.388;7.000;2023-06-01T23:03:34;14.10;99.90
2314;DHT22;42279;51.388;7.000;2023-06-01T23:05:59;14.20;99.90
2314;DHT22;42279;51.388;7.000;2023-06-01T23:08:28;14.20;99.90
2314;DHT22;42279;51.388;7.000;2023-06-01T23:10:57;13.90;99.90
2314;DHT22;42279;51.388;7.000;2023-06-01T23:13:25;14.20;99.90
2314;DHT22;42279;51.388;7.000;2023-06-01T23:15:53;14.10;99.90
2314;DHT22;42279;51.388;7.000;2023-06-01T23:18:20;13.80;99.90
2314;DHT22;42279;51.388;7.000;2023-06-01T23:20:46;13.90;99.90
2314;DHT22;42279;51.388;7.000;2023-06-01T23:23:12;14.00;99.90
2314;DHT22;42279;51.388;7.000;2023-06-01T23:25:39;13.70;99.90
2314;DHT22;42279;51.388;7.000;2023-06-01T23:28:07;13.70;99.90
2314;DHT22;42279;51.388;7.000;2023-06-01T23:30:33;13.80;99.90
2314;DHT22;42279;51.388;7.000;2023-06-01T23:32:58;14.00;99.90
2314;DHT22;42279;51.388;7.000;2023-06-01T23:35:24;13.90;99.90
2314;DHT22;42279;51.388;7.000;2023-06-01T23:37:50;13.50;99.90
2314;DHT22;42279;51.388;7.000;2023-06-01T23:40:20;14.20;99.90
2314;DHT22;42279;51.388;7.000;2023-06-01T23:42:47;13.80;99.90
2314;DHT22;42279;51.388;7.000;2023-06-01T23:45:14;13.70;99.90
2314;DHT22;42279;51.388;7.000;2023-06-01T23:47:44;14.30;99.90
2314;DHT22;42279;51.388;7.000;2023-06-01T23:50:11;13.90;99.90
2314;DHT22;42279;51.388;7.000;2023-06-01T23:52:37;14.50;99.90
2314;DHT22;42279;51.388;7.000;2023-06-01T23:55:03;13.90;99.90
2314;DHT22;42279;51.388;7.000;2023-06-01T23:57:32;13.90;99.90
2314;DHT22;42279;51.388;7.000;2023-06-01T23:59:57;14.00;99.90
